createdAt,value
2023-05-22T00:01:45.338Z,45.49
2023-05-22T00:04:13.297Z,45.49
2023-05-22T00:06:42.984Z,45.49
2023-05-22T00:09:10.053Z,45.47
2023-05-22T00:11:36.862Z,45.46
2023-05-22T00:14:05.587Z,45.47
2023-05-22T00:16:32.223Z,45.44
2023-05-22T00:19:00.006Z,45.45
2023-05-22T00:21:27.854Z,45.46
2023-05-22T00:23:54.491Z,45.47
2023-05-22T00:26:23.360Z,45.45
2023-05-22T00:28:50.063Z,45.46
2023-05-22T00:31:16.720Z,45.47
2023-05-22T00:33:43.360Z,45.48
2023-05-22T00:36:09.992Z,45.46
2023-05-22T00:38:37.758Z,45.49
2023-05-22T00:41:05.039Z,45.46
2023-05-22T00:43:31.868Z,45.47
2023-05-22T00:45:58.533Z,45.47
2023-05-22T00:48:25.388Z,45.46
2023-05-22T00:50:52.595Z,45.46
2023-05-22T00:53:22.388Z,45.46
2023-05-22T00:55:49.014Z,45.45
2023-05-22T00:58:17.605Z,45.49
2023-05-22T01:00:44.408Z,45.48
2023-05-22T01:03:11.149Z,45.46
2023-05-22T01:05:38.068Z,45.46
2023-05-22T01:08:05.089Z,45.48
2023-05-22T01:10:31.885Z,45.46
2023-05-22T01:13:24.942Z,45.46
2023-05-22T01:16:07.268Z,45.48
2023-05-22T01:19:21.857Z,45.46
2023-05-22T01:22:25.430Z,45.49
2023-05-22T01:25:16.963Z,45.45
2023-05-22T01:28:14.442Z,45.47
2023-05-22T01:30:45.324Z,45.52
2023-05-22T01:33:14.101Z,45.52
2023-05-22T01:35:40.913Z,45.52
2023-05-22T01:38:07.927Z,45.49
2023-05-22T01:40:34.744Z,45.46
2023-05-22T01:43:01.504Z,45.46
2023-05-22T01:45:28.266Z,45.44
2023-05-22T01:47:54.977Z,45.45
2023-05-22T01:50:21.620Z,45.45
2023-05-22T01:52:56.213Z,45.46
2023-05-22T01:55:45.318Z,45.43
2023-05-22T01:58:27.428Z,45.47
2023-05-22T02:00:54.891Z,45.46
2023-05-22T02:03:22.856Z,45.45
2023-05-22T02:05:52.787Z,45.49
2023-05-22T02:08:19.481Z,45.43
2023-05-22T02:10:46.189Z,45.42
2023-05-22T02:13:12.930Z,45.43
2023-05-22T02:15:39.554Z,45.38
2023-05-22T02:18:15.151Z,45.38
2023-05-22T02:20:41.953Z,45.36
2023-05-22T02:23:08.666Z,45.35
2023-05-22T02:25:35.417Z,45.37
2023-05-22T02:28:02.109Z,45.36
2023-05-22T02:30:28.787Z,45.34
2023-05-22T02:32:57.406Z,45.33
2023-05-22T02:35:24.269Z,45.30
2023-05-22T02:37:51.042Z,45.30
2023-05-22T02:40:17.872Z,45.33
2023-05-22T02:42:44.527Z,45.28
2023-05-22T02:45:11.339Z,45.28
2023-05-22T02:47:40.279Z,45.31
2023-05-22T02:50:07.746Z,45.31
2023-05-22T02:52:35.259Z,45.28
2023-05-22T02:55:01.974Z,45.33
2023-05-22T02:57:28.622Z,45.34
2023-05-22T02:59:57.704Z,45.34
2023-05-22T03:02:26.102Z,45.36
2023-05-22T03:04:52.791Z,45.37
2023-05-22T03:07:21.473Z,45.42
2023-05-22T03:09:48.083Z,45.42
2023-05-22T03:12:14.708Z,45.44
2023-05-22T03:14:41.385Z,45.48
2023-05-22T03:17:08.013Z,45.50
2023-05-22T03:19:34.638Z,45.50
2023-05-22T03:22:01.441Z,45.52
2023-05-22T03:24:28.155Z,45.57
2023-05-22T03:26:54.946Z,45.47
2023-05-22T03:29:21.937Z,45.57
2023-05-22T03:31:48.670Z,45.58
2023-05-22T03:34:16.603Z,45.62
2023-05-22T03:36:43.233Z,45.62
2023-05-22T03:39:09.981Z,45.52
2023-05-22T03:41:37.127Z,45.67
2023-05-22T03:44:03.799Z,45.63
2023-05-22T03:46:30.650Z,45.62
2023-05-22T03:48:58.302Z,45.66
2023-05-22T03:51:24.979Z,45.69
2023-05-22T03:53:51.681Z,45.73
2023-05-22T03:56:18.448Z,45.60
2023-05-22T03:58:45.075Z,45.70
2023-05-22T04:01:13.786Z,45.71
2023-05-22T04:03:40.695Z,45.70
2023-05-22T04:06:07.659Z,45.70
2023-05-22T04:08:34.769Z,45.68
2023-05-22T04:11:01.473Z,45.65
2023-05-22T04:13:28.223Z,45.64
2023-05-22T04:15:56.776Z,45.67
2023-05-22T04:18:23.473Z,45.65
2023-05-22T04:20:51.928Z,45.67
2023-05-22T04:23:18.567Z,45.59
2023-05-22T04:25:47.818Z,45.60
2023-05-22T04:28:19.559Z,45.58
2023-05-22T04:30:46.289Z,45.55
2023-05-22T04:33:13.696Z,45.53
2023-05-22T04:35:44.306Z,45.50
2023-05-22T04:38:11.022Z,45.46
2023-05-22T04:40:38.083Z,45.88
2023-05-22T04:43:05.127Z,45.93
2023-05-22T04:45:32.999Z,45.88
2023-05-22T04:48:02.778Z,46.05
2023-05-22T04:50:32.821Z,45.86
2023-05-22T04:53:00.002Z,45.59
2023-05-22T04:55:26.635Z,45.47
2023-05-22T04:57:54.860Z,45.33
2023-05-22T05:00:26.528Z,45.39
2023-05-22T05:02:53.600Z,45.12
2023-05-22T05:05:20.600Z,45.08
2023-05-22T05:07:50.054Z,45.04
2023-05-22T05:10:17.100Z,44.90
2023-05-22T05:12:43.853Z,44.72
2023-05-22T05:15:11.856Z,44.70
2023-05-22T05:17:38.546Z,44.70
2023-05-22T05:20:07.360Z,44.70
2023-05-22T05:22:34.161Z,44.86
2023-05-22T05:25:01.222Z,44.58
2023-05-22T05:27:27.992Z,44.03
2023-05-22T05:29:54.949Z,43.89
2023-05-22T05:32:21.679Z,44.04
2023-05-22T05:34:48.391Z,43.91
2023-05-22T05:37:14.992Z,44.17
2023-05-22T05:39:41.614Z,44.31
2023-05-22T05:42:08.429Z,44.36
2023-05-22T05:44:35.062Z,44.58
2023-05-22T05:47:01.990Z,44.40
2023-05-22T05:49:30.927Z,44.44
2023-05-22T05:51:57.524Z,44.39
2023-05-22T05:54:26.325Z,44.44
2023-05-22T05:56:53.193Z,44.10
2023-05-22T05:59:19.889Z,44.05
2023-05-22T06:01:49.524Z,44.27
2023-05-22T06:04:16.174Z,44.28
2023-05-22T06:06:44.281Z,44.33
2023-05-22T06:09:11.526Z,44.32
2023-05-22T06:11:38.189Z,44.03
2023-05-22T06:14:07.688Z,43.78
2023-05-22T06:16:34.516Z,43.53
2023-05-22T06:19:04.107Z,44.21
2023-05-22T06:21:31.134Z,44.29
2023-05-22T06:23:58.741Z,44.37
2023-05-22T06:26:25.964Z,43.98
2023-05-22T06:28:54.023Z,44.12
2023-05-22T06:31:22.712Z,43.97
2023-05-22T06:33:49.630Z,43.92
2023-05-22T06:36:16.384Z,43.25
2023-05-22T06:38:43.663Z,43.39
2023-05-22T06:41:13.104Z,44.03
2023-05-22T06:43:39.876Z,43.53
2023-05-22T06:46:07.283Z,43.86
2023-05-22T06:48:35.270Z,43.81
2023-05-22T06:51:02.371Z,44.00
2023-05-22T06:53:29.078Z,43.74
2023-05-22T06:55:56.425Z,44.42
2023-05-22T06:58:25.560Z,44.86
2023-05-22T07:00:52.390Z,44.32
2023-05-22T07:03:22.517Z,44.49
2023-05-22T07:05:50.369Z,44.38
2023-05-22T07:08:17.031Z,44.36
2023-05-22T07:10:43.901Z,42.95
2023-05-22T07:13:11.338Z,42.81
2023-05-22T07:15:38.166Z,42.16
2023-05-22T07:18:04.860Z,44.43
2023-05-22T07:20:31.855Z,44.16
2023-05-22T07:22:58.565Z,40.98
2023-05-22T07:25:25.254Z,43.70
2023-05-22T07:27:55.763Z,42.03
2023-05-22T07:30:22.540Z,41.62
2023-05-22T07:32:49.295Z,42.88
2023-05-22T07:35:17.325Z,40.45
2023-05-22T07:37:44.017Z,40.33
2023-05-22T07:40:11.434Z,39.88
2023-05-22T07:42:38.493Z,40.08
2023-05-22T07:45:05.665Z,40.49
2023-05-22T07:47:32.416Z,40.39
2023-05-22T07:49:59.200Z,40.41
2023-05-22T07:52:26.035Z,39.84
2023-05-22T07:54:53.078Z,40.06
2023-05-22T07:57:23.058Z,41.13
2023-05-22T07:59:50.825Z,41.88
2023-05-22T08:02:23.100Z,41.91
2023-05-22T08:04:53.615Z,41.73
2023-05-22T08:07:20.362Z,40.83
2023-05-22T08:09:47.124Z,41.13
2023-05-22T08:12:13.793Z,41.14
2023-05-22T08:14:41.233Z,41.35
2023-05-22T08:17:08.031Z,41.64
2023-05-22T08:19:34.839Z,41.70
2023-05-22T08:22:01.772Z,41.45
2023-05-22T08:24:30.004Z,41.66
2023-05-22T08:26:58.393Z,41.83
2023-05-22T08:29:25.398Z,41.13
2023-05-22T08:31:54.015Z,41.52
2023-05-22T08:34:21.020Z,41.53
2023-05-22T08:36:49.055Z,41.33
2023-05-22T08:39:15.863Z,41.41
2023-05-22T08:41:45.443Z,41.78
2023-05-22T08:44:13.455Z,41.21
2023-05-22T08:46:41.857Z,41.25
2023-05-22T08:49:12.909Z,41.29
2023-05-22T08:51:42.183Z,41.32
2023-05-22T08:54:09.331Z,41.40
2023-05-22T08:56:39.849Z,41.41
2023-05-22T08:59:12.720Z,41.50
2023-05-22T09:01:39.406Z,41.52
2023-05-22T09:04:06.261Z,41.59
2023-05-22T09:06:32.986Z,41.60
2023-05-22T09:08:59.761Z,41.68
2023-05-22T09:11:26.680Z,41.94
2023-05-22T09:13:53.525Z,41.98
2023-05-22T09:16:20.854Z,41.94
2023-05-22T09:18:47.699Z,41.92
2023-05-22T09:21:29.650Z,42.08
2023-05-22T09:24:01.492Z,42.13
2023-05-22T09:26:29.404Z,42.20
2023-05-22T09:28:57.196Z,42.28
2023-05-22T09:31:23.975Z,42.29
2023-05-22T09:33:50.737Z,42.28
2023-05-22T09:36:17.541Z,42.13
2023-05-22T09:38:44.148Z,42.16
2023-05-22T09:41:10.817Z,42.13
2023-05-22T09:43:37.459Z,42.25
2023-05-22T09:46:04.400Z,42.17
2023-05-22T09:48:36.396Z,42.38
2023-05-22T09:51:03.535Z,42.51
2023-05-22T09:53:30.305Z,42.50
2023-05-22T09:55:58.185Z,42.51
2023-05-22T09:58:27.153Z,42.64
2023-05-22T10:00:57.802Z,42.77
2023-05-22T10:03:26.949Z,42.67
2023-05-22T10:05:58.950Z,42.75
2023-05-22T10:08:30.156Z,42.76
2023-05-22T10:11:00.548Z,42.74
2023-05-22T10:13:27.563Z,42.78
2023-05-22T10:15:54.244Z,42.78
2023-05-22T10:18:20.907Z,42.67
2023-05-22T10:20:47.861Z,42.62
2023-05-22T10:23:16.317Z,42.58
2023-05-22T10:25:43.916Z,42.61
2023-05-22T10:28:10.788Z,42.62
2023-05-22T10:30:40.535Z,42.71
2023-05-22T10:33:12.896Z,42.64
2023-05-22T10:35:55.526Z,42.74
2023-05-22T10:38:57.786Z,42.69
2023-05-22T10:41:24.584Z,42.77
2023-05-22T10:43:51.442Z,42.96
2023-05-22T10:46:18.300Z,43.03
2023-05-22T10:48:46.876Z,43.04
2023-05-22T10:51:14.622Z,43.08
2023-05-22T10:53:43.046Z,43.09
2023-05-22T10:56:11.746Z,42.98
2023-05-22T10:58:38.960Z,42.72
2023-05-22T11:01:17.039Z,42.86
2023-05-22T11:04:00.063Z,42.96
2023-05-22T11:06:39.347Z,42.91
2023-05-22T11:09:21.506Z,42.89
2023-05-22T11:11:52.266Z,42.88
2023-05-22T11:14:20.692Z,42.84
2023-05-22T11:16:52.435Z,42.84
2023-05-22T11:19:23.779Z,42.76
2023-05-22T11:21:51.148Z,42.79
2023-05-22T11:24:18.267Z,42.71
2023-05-22T11:26:44.995Z,42.79
2023-05-22T11:29:11.753Z,42.85
2023-05-22T11:31:38.591Z,42.92
2023-05-22T11:34:05.652Z,42.98
2023-05-22T11:36:32.422Z,43.02
2023-05-22T11:39:00.109Z,43.03
2023-05-22T11:41:34.353Z,43.08
2023-05-22T11:44:01.559Z,43.11
2023-05-22T11:46:30.299Z,43.12
2023-05-22T11:48:57.060Z,43.20
2023-05-22T11:51:23.675Z,43.20
2023-05-22T11:53:52.775Z,43.24
2023-05-22T11:56:21.599Z,43.24
2023-05-22T11:58:51.889Z,43.32
2023-05-22T12:01:18.869Z,43.33
2023-05-22T12:03:45.708Z,43.35
2023-05-22T12:06:14.535Z,43.36
2023-05-22T12:08:43.517Z,43.40
2023-05-22T12:11:11.675Z,43.41
2023-05-22T12:13:39.238Z,43.44
2023-05-22T12:16:18.438Z,43.36
2023-05-22T12:18:45.092Z,43.47
2023-05-22T12:21:11.942Z,43.50
2023-05-22T12:23:48.772Z,43.60
2023-05-22T12:26:15.398Z,43.56
2023-05-22T12:28:42.117Z,43.55
2023-05-22T12:31:08.814Z,43.67
2023-05-22T12:33:35.580Z,43.70
2023-05-22T12:36:07.078Z,43.58
2023-05-22T12:38:35.537Z,43.44
2023-05-22T12:41:02.395Z,43.45
2023-05-22T12:43:29.109Z,43.49
2023-05-22T12:45:55.800Z,43.50
2023-05-22T12:48:23.068Z,43.51
2023-05-22T12:50:49.939Z,43.54
2023-05-22T12:53:16.560Z,43.60
2023-05-22T12:55:43.276Z,43.56
2023-05-22T12:58:09.953Z,43.54
2023-05-22T13:00:36.698Z,43.58
2023-05-22T13:03:03.451Z,43.64
2023-05-22T13:05:30.301Z,43.75
2023-05-22T13:07:57.085Z,43.71
2023-05-22T13:10:23.723Z,43.79
2023-05-22T13:12:51.652Z,43.86
2023-05-22T13:15:18.613Z,43.88
2023-05-22T13:17:45.741Z,43.88
2023-05-22T13:20:12.904Z,43.96
2023-05-22T13:22:40.135Z,43.98
2023-05-22T13:25:07.092Z,44.09
2023-05-22T13:27:34.120Z,44.08
2023-05-22T13:30:01.364Z,44.10
2023-05-22T13:32:28.244Z,44.17
2023-05-22T13:34:54.834Z,44.22
2023-05-22T13:37:21.815Z,44.17
2023-05-22T13:39:48.593Z,44.24
2023-05-22T13:42:15.355Z,44.24
2023-05-22T13:44:44.125Z,44.29
2023-05-22T13:47:10.918Z,44.27
2023-05-22T13:49:37.614Z,44.39
2023-05-22T13:52:04.398Z,44.39
2023-05-22T13:54:31.051Z,44.42
2023-05-22T13:56:59.811Z,44.47
2023-05-22T13:59:27.252Z,44.47
2023-05-22T14:01:53.999Z,44.54
2023-05-22T14:04:20.837Z,44.56
2023-05-22T14:06:47.558Z,44.55
2023-05-22T14:09:14.274Z,44.66
2023-05-22T14:11:43.209Z,44.66
2023-05-22T14:14:09.917Z,44.71
2023-05-22T14:16:36.576Z,44.79
2023-05-22T14:19:03.404Z,44.85
2023-05-22T14:21:31.019Z,44.84
2023-05-22T14:23:57.883Z,44.76
2023-05-22T14:26:24.796Z,44.85
2023-05-22T14:28:51.650Z,44.84
2023-05-22T14:31:18.352Z,44.85
2023-05-22T14:33:45.046Z,44.91
2023-05-22T14:36:11.705Z,44.96
2023-05-22T14:38:38.373Z,45.06
2023-05-22T14:41:05.228Z,45.11
2023-05-22T14:43:31.929Z,45.14
2023-05-22T14:45:59.296Z,45.25
2023-05-22T14:48:26.632Z,45.33
2023-05-22T14:50:53.873Z,45.38
2023-05-22T14:53:20.854Z,45.45
2023-05-22T14:55:47.654Z,45.53
2023-05-22T14:58:14.529Z,45.58
2023-05-22T15:00:42.749Z,45.64
2023-05-22T15:03:09.467Z,45.68
2023-05-22T15:05:36.419Z,45.76
2023-05-22T15:08:03.082Z,45.82
2023-05-22T15:10:29.861Z,45.86
2023-05-22T15:12:56.631Z,45.97
2023-05-22T15:15:23.352Z,46.07
2023-05-22T15:17:50.000Z,45.98
2023-05-22T15:20:16.939Z,45.81
2023-05-22T15:22:43.577Z,45.72
2023-05-22T15:25:16.800Z,45.65
2023-05-22T15:27:43.615Z,45.60
2023-05-22T15:30:10.687Z,45.57
2023-05-22T15:32:37.460Z,45.56
2023-05-22T15:35:05.743Z,45.56
2023-05-22T15:37:33.797Z,45.55
2023-05-22T15:40:01.687Z,45.55
2023-05-22T15:42:28.674Z,45.54
2023-05-22T15:44:55.609Z,45.55
2023-05-22T15:47:22.348Z,45.55
2023-05-22T15:49:49.055Z,45.58
2023-05-22T15:52:15.956Z,45.60
2023-05-22T15:54:42.757Z,45.62
2023-05-22T15:57:09.405Z,46.05
2023-05-22T15:59:36.023Z,46.39
2023-05-22T16:02:02.784Z,46.46
2023-05-22T16:04:29.414Z,46.50
2023-05-22T16:06:56.065Z,46.22
2023-05-22T16:09:22.730Z,46.07
2023-05-22T16:11:49.388Z,45.99
2023-05-22T16:14:16.057Z,45.91
2023-05-22T16:16:43.652Z,45.83
2023-05-22T16:19:11.623Z,45.79
2023-05-22T16:21:38.627Z,45.73
2023-05-22T16:24:06.903Z,45.69
2023-05-22T16:26:33.769Z,45.65
2023-05-22T16:29:00.399Z,45.60
2023-05-22T16:31:27.063Z,45.58
2023-05-22T16:33:53.679Z,45.54
2023-05-22T16:36:20.482Z,45.51
2023-05-22T16:38:47.121Z,45.50
2023-05-22T16:41:13.772Z,45.48
2023-05-22T16:43:40.412Z,45.45
2023-05-22T16:46:07.106Z,45.42
2023-05-22T16:48:33.712Z,45.39
2023-05-22T16:51:00.742Z,45.38
2023-05-22T16:53:27.390Z,45.37
2023-05-22T16:55:54.163Z,45.33
2023-05-22T16:58:21.822Z,45.33
2023-05-22T17:00:48.764Z,45.32
2023-05-22T17:03:15.795Z,45.31
2023-05-22T17:05:42.878Z,45.30
2023-05-22T17:08:09.683Z,45.30
2023-05-22T17:10:36.381Z,45.28
2023-05-22T17:13:03.200Z,45.26
2023-05-22T17:15:29.896Z,45.28
2023-05-22T17:17:56.825Z,45.25
2023-05-22T17:20:23.558Z,45.24
2023-05-22T17:22:50.345Z,45.21
2023-05-22T17:25:17.168Z,45.21
2023-05-22T17:27:44.481Z,45.18
2023-05-22T17:30:11.463Z,45.18
2023-05-22T17:32:38.196Z,45.19
2023-05-22T17:35:06.854Z,45.17
2023-05-22T17:37:33.920Z,45.14
2023-05-22T17:40:00.611Z,45.13
2023-05-22T17:42:27.274Z,45.13
2023-05-22T17:44:53.953Z,45.13
2023-05-22T17:47:20.666Z,45.13
2023-05-22T17:49:47.592Z,45.13
2023-05-22T17:52:14.361Z,45.13
2023-05-22T17:54:41.044Z,45.13
2023-05-22T17:57:07.773Z,45.15
2023-05-22T17:59:34.470Z,45.14
2023-05-22T18:02:01.283Z,45.14
2023-05-22T18:04:28.089Z,45.16
2023-05-22T18:06:54.719Z,45.17
2023-05-22T18:09:21.379Z,45.19
2023-05-22T18:11:48.051Z,45.20
2023-05-22T18:14:14.706Z,45.22
2023-05-22T18:16:41.451Z,45.21
2023-05-22T18:19:08.180Z,45.23
2023-05-22T18:21:34.904Z,45.26
2023-05-22T18:24:01.566Z,45.28
2023-05-22T18:26:28.212Z,45.27
2023-05-22T18:28:54.902Z,45.28
2023-05-22T18:31:23.009Z,45.27
2023-05-22T18:33:49.753Z,45.27
2023-05-22T18:36:16.404Z,45.28
2023-05-22T18:38:45.497Z,45.28
2023-05-22T18:41:12.178Z,45.27
2023-05-22T18:43:38.842Z,45.31
2023-05-22T18:46:05.550Z,45.31
2023-05-22T18:48:33.225Z,45.29
2023-05-22T18:51:01.370Z,45.29
2023-05-22T18:53:28.066Z,45.28
2023-05-22T18:55:54.811Z,45.31
2023-05-22T18:58:21.658Z,45.32
2023-05-22T19:00:48.713Z,45.32
2023-05-22T19:03:15.545Z,45.33
2023-05-22T19:05:43.147Z,45.33
2023-05-22T19:08:09.859Z,45.34
2023-05-22T19:10:36.536Z,45.37
2023-05-22T19:13:03.944Z,45.38
2023-05-22T19:15:33.055Z,45.40
2023-05-22T19:18:00.200Z,45.42
2023-05-22T19:20:27.192Z,45.45
2023-05-22T19:22:54.887Z,45.48
2023-05-22T19:25:21.589Z,45.54
2023-05-22T19:27:48.181Z,45.58
2023-05-22T19:30:18.941Z,45.60
2023-05-22T19:32:46.830Z,45.62
2023-05-22T19:35:13.506Z,45.66
2023-05-22T19:37:40.179Z,45.68
2023-05-22T19:40:07.493Z,45.72
2023-05-22T19:42:34.731Z,45.74
2023-05-22T19:45:02.709Z,45.79
2023-05-22T19:47:29.442Z,45.81
2023-05-22T19:49:56.241Z,45.86
2023-05-22T19:52:22.876Z,45.93
2023-05-22T19:54:49.629Z,45.97
2023-05-22T19:57:16.250Z,46.04
2023-05-22T19:59:43.119Z,46.10
2023-05-22T20:02:09.914Z,46.16
2023-05-22T20:04:38.945Z,46.23
2023-05-22T20:07:07.278Z,46.30
2023-05-22T20:09:33.988Z,46.34
2023-05-22T20:12:00.709Z,46.38
2023-05-22T20:14:27.380Z,46.44
2023-05-22T20:16:54.534Z,46.48
2023-05-22T20:19:24.300Z,46.53
2023-05-22T20:21:51.921Z,46.55
2023-05-22T20:24:21.085Z,46.58
2023-05-22T20:26:47.857Z,46.60
2023-05-22T20:29:14.617Z,46.65
2023-05-22T20:31:41.439Z,46.68
2023-05-22T20:34:09.590Z,46.69
2023-05-22T20:36:36.515Z,46.73
2023-05-22T20:39:03.543Z,46.76
2023-05-22T20:41:30.250Z,46.77
2023-05-22T20:43:58.724Z,46.81
2023-05-22T20:46:26.802Z,46.83
2023-05-22T20:48:53.893Z,46.87
2023-05-22T20:51:20.843Z,46.90
2023-05-22T20:53:48.119Z,46.92
2023-05-22T20:56:15.005Z,46.94
2023-05-22T20:58:42.908Z,46.95
2023-05-22T21:01:09.628Z,46.96
2023-05-22T21:03:36.599Z,46.97
2023-05-22T21:06:03.536Z,46.98
2023-05-22T21:08:30.206Z,46.98
2023-05-22T21:10:56.828Z,47.02
2023-05-22T21:13:23.444Z,47.02
2023-05-22T21:15:50.069Z,47.04
2023-05-22T21:18:16.925Z,47.09
2023-05-22T21:20:43.654Z,47.08
2023-05-22T21:23:10.397Z,47.09
2023-05-22T21:25:37.159Z,47.12
2023-05-22T21:28:03.998Z,47.11
2023-05-22T21:30:31.669Z,47.17
2023-05-22T21:32:58.423Z,47.17
2023-05-22T21:35:25.157Z,47.19
2023-05-22T21:37:52.957Z,47.20
2023-05-22T21:40:22.105Z,47.20
2023-05-22T21:42:48.803Z,47.18
2023-05-22T21:45:17.830Z,47.17
2023-05-22T21:47:44.530Z,47.17
2023-05-22T21:50:11.468Z,47.16
2023-05-22T21:52:38.100Z,47.16
2023-05-22T21:55:05.210Z,47.15
2023-05-22T21:57:31.854Z,47.16
2023-05-22T21:59:58.507Z,47.16
2023-05-22T22:02:25.501Z,47.09
2023-05-22T22:04:52.133Z,47.10
2023-05-22T22:07:18.853Z,47.09
2023-05-22T22:09:45.717Z,47.08
2023-05-22T22:12:12.406Z,47.07
2023-05-22T22:14:39.058Z,47.04
2023-05-22T22:17:06.285Z,47.07
2023-05-22T22:19:34.506Z,47.07
2023-05-22T22:22:01.791Z,47.04
2023-05-22T22:24:29.457Z,47.05
2023-05-22T22:26:56.684Z,47.05
2023-05-22T22:29:23.425Z,47.04
2023-05-22T22:31:50.107Z,47.08
2023-05-22T22:34:16.862Z,47.08
2023-05-22T22:36:43.535Z,47.00
2023-05-22T22:39:10.868Z,47.03
2023-05-22T22:41:37.525Z,47.02
2023-05-22T22:44:04.240Z,47.02
2023-05-22T22:46:30.988Z,46.97
2023-05-22T22:48:59.321Z,47.00
2023-05-22T22:51:25.957Z,47.04
2023-05-22T22:53:52.590Z,47.02
2023-05-22T22:56:19.507Z,46.99
2023-05-22T22:58:46.164Z,47.02
2023-05-22T23:01:12.843Z,47.02
2023-05-22T23:03:39.553Z,47.00
2023-05-22T23:06:06.445Z,46.99
2023-05-22T23:08:33.131Z,47.00
2023-05-22T23:10:59.833Z,46.97
2023-05-22T23:13:26.523Z,46.98
2023-05-22T23:15:53.433Z,47.02
2023-05-22T23:18:20.263Z,46.97
2023-05-22T23:20:47.079Z,46.98
2023-05-22T23:23:13.730Z,46.93
2023-05-22T23:25:40.738Z,46.90
2023-05-22T23:28:07.599Z,46.86
2023-05-22T23:30:34.236Z,46.87
2023-05-22T23:33:02.613Z,46.86
2023-05-22T23:35:29.336Z,46.87
2023-05-22T23:37:56.022Z,46.87
2023-05-22T23:40:22.672Z,46.86
2023-05-22T23:42:49.333Z,46.84
2023-05-22T23:45:15.923Z,46.85
2023-05-22T23:47:42.597Z,46.82
2023-05-22T23:50:09.703Z,46.85
2023-05-22T23:52:36.708Z,46.83
2023-05-22T23:55:03.450Z,46.77
2023-05-22T23:57:30.082Z,46.77
2023-05-22T23:59:56.764Z,46.76
